createdAt,value
2018-09-13T00:00:32.867Z,99.99
2018-09-13T00:01:32.887Z,99.99
2018-09-13T00:02:32.908Z,99.99
2018-09-13T00:03:32.927Z,99.99
2018-09-13T00:04:32.952Z,99.99
2018-09-13T00:05:32.972Z,99.99
2018-09-13T00:06:32.995Z,99.99
2018-09-13T00:07:33.016Z,99.99
2018-09-13T00:08:33.033Z,99.99
2018-09-13T00:09:33.055Z,99.99
2018-09-13T00:10:33.084Z,99.99
2018-09-13T00:11:33.098Z,99.99
2018-09-13T00:12:33.128Z,99.99
2018-09-13T00:13:33.142Z,99.99
2018-09-13T00:14:33.168Z,99.99
2018-09-13T00:15:33.181Z,99.99
2018-09-13T00:16:33.206Z,99.99
2018-09-13T00:17:33.226Z,99.99
2018-09-13T00:18:33.246Z,99.99
2018-09-13T00:19:33.272Z,99.99
2018-09-13T00:20:33.289Z,99.99
2018-09-13T00:21:33.313Z,99.99
2018-09-13T00:22:33.327Z,99.99
2018-09-13T00:23:33.356Z,99.99
2018-09-13T00:24:33.377Z,99.99
2018-09-13T00:25:33.394Z,99.99
2018-09-13T00:26:33.419Z,99.99
2018-09-13T00:27:33.444Z,99.99
2018-09-13T00:28:33.463Z,99.99
2018-09-13T00:29:33.478Z,99.99
2018-09-13T00:30:33.515Z,99.99
2018-09-13T00:31:33.520Z,99.99
2018-09-13T00:32:33.544Z,99.99
2018-09-13T00:33:33.564Z,99.99
2018-09-13T00:34:33.586Z,99.99
2018-09-13T00:35:33.604Z,99.99
2018-09-13T00:36:33.628Z,99.99
2018-09-13T00:37:33.651Z,99.99
2018-09-13T00:38:33.664Z,99.99
2018-09-13T00:39:33.686Z,99.99
2018-09-13T00:40:33.708Z,99.99
2018-09-13T00:41:33.730Z,99.99
2018-09-13T00:42:33.758Z,99.99
2018-09-13T00:43:33.778Z,99.99
2018-09-13T00:44:33.796Z,99.99
2018-09-13T00:45:33.816Z,99.99
2018-09-13T00:46:33.838Z,99.99
2018-09-13T00:47:33.864Z,99.99
2018-09-13T00:48:33.886Z,99.99
2018-09-13T00:49:33.902Z,99.99
2018-09-13T00:50:33.924Z,99.99
2018-09-13T00:51:33.942Z,99.99
2018-09-13T00:52:33.968Z,99.99
2018-09-13T00:53:33.990Z,99.99
2018-09-13T00:54:34.015Z,99.99
2018-09-13T00:55:34.029Z,99.99
2018-09-13T00:56:34.048Z,99.99
2018-09-13T00:57:34.074Z,99.99
2018-09-13T00:58:34.111Z,99.99
2018-09-13T00:59:34.116Z,99.99
2018-09-13T01:00:34.135Z,99.99
2018-09-13T01:01:34.158Z,99.99
2018-09-13T01:02:34.178Z,99.99
2018-09-13T01:03:34.200Z,99.99
2018-09-13T01:04:34.232Z,99.99
2018-09-13T01:05:34.245Z,99.99
2018-09-13T01:06:34.268Z,99.99
2018-09-13T01:07:34.288Z,99.99
2018-09-13T01:08:34.306Z,99.99
2018-09-13T01:09:34.326Z,99.99
2018-09-13T01:10:34.350Z,99.99
2018-09-13T01:11:34.375Z,99.99
2018-09-13T01:12:34.389Z,99.99
2018-09-13T01:13:34.414Z,99.99
2018-09-13T01:14:34.436Z,99.99
2018-09-13T01:15:34.452Z,99.99
2018-09-13T01:16:34.482Z,99.99
2018-09-13T01:17:34.498Z,99.99
2018-09-13T01:18:34.518Z,99.99
2018-09-13T01:19:34.538Z,99.99
2018-09-13T01:20:34.560Z,99.99
2018-09-13T01:21:34.584Z,99.99
2018-09-13T01:22:34.614Z,99.99
2018-09-13T01:23:34.623Z,99.99
2018-09-13T01:24:34.648Z,99.99
2018-09-13T01:25:34.670Z,99.99
2018-09-13T01:26:34.692Z,99.99
2018-09-13T01:27:34.709Z,99.99
2018-09-13T01:28:34.732Z,99.99
2018-09-13T01:29:34.750Z,99.99
2018-09-13T01:30:34.778Z,99.99
2018-09-13T01:31:34.794Z,99.99
2018-09-13T01:32:34.815Z,99.99
2018-09-13T01:33:34.835Z,99.99
2018-09-13T01:34:34.860Z,99.99
2018-09-13T01:35:34.881Z,99.99
2018-09-13T01:36:34.898Z,99.99
2018-09-13T01:37:34.918Z,99.99
2018-09-13T01:38:34.943Z,99.99
2018-09-13T01:39:34.961Z,99.99
2018-09-13T01:40:34.989Z,99.99
2018-09-13T01:41:35.004Z,99.99
2018-09-13T01:42:35.029Z,99.99
2018-09-13T01:43:35.056Z,99.99
2018-09-13T01:44:35.068Z,99.99
2018-09-13T01:45:35.096Z,99.99
2018-09-13T01:46:35.113Z,99.99
2018-09-13T01:47:35.129Z,99.99
2018-09-13T01:48:35.152Z,99.99
2018-09-13T01:49:35.174Z,99.99
2018-09-13T01:50:35.204Z,99.99
2018-09-13T01:51:35.219Z,99.99
2018-09-13T01:52:35.240Z,99.99
2018-09-13T01:53:35.264Z,99.99
2018-09-13T01:54:35.283Z,99.99
2018-09-13T01:55:35.303Z,99.99
2018-09-13T01:56:35.322Z,99.99
2018-09-13T01:57:35.345Z,99.99
2018-09-13T01:58:35.366Z,99.99
2018-09-13T01:59:35.386Z,99.99
2018-09-13T02:00:35.406Z,99.99
2018-09-13T02:01:35.433Z,99.99
2018-09-13T02:02:35.445Z,99.99
2018-09-13T02:03:35.476Z,99.99
2018-09-13T02:04:35.491Z,99.99
2018-09-13T02:05:35.512Z,99.99
2018-09-13T02:06:35.538Z,99.99
2018-09-13T02:07:35.558Z,99.99
2018-09-13T02:08:35.584Z,99.99
2018-09-13T02:09:35.595Z,99.99
2018-09-13T02:10:35.616Z,99.99
2018-09-13T02:11:35.638Z,99.99
2018-09-13T02:12:35.664Z,99.99
2018-09-13T02:13:35.690Z,99.99
2018-09-13T02:14:35.700Z,99.99
2018-09-13T02:15:35.726Z,99.99
2018-09-13T02:16:35.750Z,99.99
2018-09-13T02:17:35.768Z,99.99
2018-09-13T02:18:35.793Z,99.99
2018-09-13T02:19:35.812Z,99.99
2018-09-13T02:20:35.829Z,99.99
2018-09-13T02:21:35.850Z,99.99
2018-09-13T02:22:35.868Z,99.99
2018-09-13T02:23:35.889Z,99.99
2018-09-13T02:24:35.910Z,99.99
2018-09-13T02:25:35.942Z,99.99
2018-09-13T02:26:35.957Z,99.99
2018-09-13T02:27:35.976Z,99.99
2018-09-13T02:28:35.996Z,99.99
2018-09-13T02:29:36.024Z,99.99
2018-09-13T02:30:36.051Z,99.99
2018-09-13T02:31:36.064Z,99.99
2018-09-13T02:32:36.096Z,99.99
2018-09-13T02:33:36.104Z,99.99
2018-09-13T02:34:36.131Z,99.99
2018-09-13T02:35:36.151Z,99.99
2018-09-13T02:36:36.170Z,99.99
2018-09-13T02:37:36.185Z,99.99
2018-09-13T02:38:36.210Z,99.99
2018-09-13T02:39:36.228Z,99.99
2018-09-13T02:40:36.256Z,99.99
2018-09-13T02:41:36.277Z,99.99
2018-09-13T02:42:36.299Z,99.99
2018-09-13T02:43:36.315Z,99.99
2018-09-13T02:44:36.340Z,99.99
2018-09-13T02:45:36.360Z,99.99
2018-09-13T02:46:36.380Z,99.99
2018-09-13T02:47:36.401Z,99.99
2018-09-13T02:48:36.425Z,99.99
2018-09-13T02:49:36.443Z,99.99
2018-09-13T02:50:36.465Z,99.99
2018-09-13T02:51:36.487Z,99.99
2018-09-13T02:52:36.511Z,99.99
2018-09-13T02:53:36.535Z,99.99
2018-09-13T02:54:36.555Z,99.99
2018-09-13T02:55:36.572Z,99.99
2018-09-13T02:56:36.592Z,99.99
2018-09-13T02:57:36.612Z,99.99
2018-09-13T02:58:36.639Z,99.99
2018-09-13T02:59:36.659Z,99.99
2018-09-13T03:00:36.679Z,99.99
2018-09-13T03:01:36.699Z,99.99
2018-09-13T03:02:36.729Z,99.99
2018-09-13T03:03:36.741Z,99.99
2018-09-13T03:04:36.765Z,99.99
2018-09-13T03:05:36.785Z,99.99
2018-09-13T03:06:36.809Z,99.99
2018-09-13T03:07:36.825Z,99.99
2018-09-13T03:08:36.848Z,99.99
2018-09-13T03:09:36.871Z,99.99
2018-09-13T03:10:36.891Z,99.99
2018-09-13T03:11:36.912Z,99.99
2018-09-13T03:12:36.934Z,99.99
2018-09-13T03:13:36.953Z,99.99
2018-09-13T03:14:36.974Z,99.99
2018-09-13T03:15:36.995Z,99.99
2018-09-13T03:16:37.021Z,99.99
2018-09-13T03:17:37.040Z,99.99
2018-09-13T03:18:37.063Z,99.99
2018-09-13T03:19:37.087Z,99.99
2018-09-13T03:20:37.105Z,99.99
2018-09-13T03:21:37.129Z,99.99
2018-09-13T03:22:37.147Z,99.99
2018-09-13T03:23:37.167Z,99.99
2018-09-13T03:24:37.189Z,99.99
2018-09-13T03:25:37.206Z,99.99
2018-09-13T03:26:37.230Z,99.99
2018-09-13T03:27:37.253Z,99.99
2018-09-13T03:28:37.271Z,99.99
2018-09-13T03:29:37.298Z,99.99
2018-09-13T03:30:37.317Z,99.99
2018-09-13T03:31:37.337Z,99.99
2018-09-13T03:32:37.358Z,99.99
2018-09-13T03:33:37.381Z,99.99
2018-09-13T03:34:37.406Z,99.99
2018-09-13T03:35:37.423Z,99.99
2018-09-13T03:36:37.439Z,99.99
2018-09-13T03:37:37.465Z,99.99
2018-09-13T03:38:37.490Z,99.99
2018-09-13T03:39:37.508Z,99.99
2018-09-13T03:40:37.526Z,99.99
2018-09-13T03:41:37.548Z,99.99
2018-09-13T03:42:37.564Z,99.99
2018-09-13T03:43:37.590Z,99.99
2018-09-13T03:44:37.613Z,99.99
2018-09-13T03:45:37.631Z,99.99
2018-09-13T03:46:37.653Z,99.99
2018-09-13T03:47:37.672Z,99.99
2018-09-13T03:48:37.696Z,99.99
2018-09-13T03:49:37.719Z,99.99
2018-09-13T03:50:37.736Z,99.99
2018-09-13T03:51:37.761Z,99.99
2018-09-13T03:52:37.793Z,99.99
2018-09-13T03:53:37.808Z,99.99
2018-09-13T03:54:37.824Z,99.99
2018-09-13T03:55:37.841Z,99.99
2018-09-13T03:56:37.867Z,99.99
2018-09-13T03:57:37.885Z,99.99
2018-09-13T03:58:37.903Z,99.99
2018-09-13T03:59:37.935Z,99.99
2018-09-13T04:00:37.951Z,99.99
2018-09-13T04:01:37.971Z,99.99
2018-09-13T04:02:37.997Z,99.99
2018-09-13T04:03:38.009Z,99.99
2018-09-13T04:04:38.032Z,99.99
2018-09-13T04:05:38.066Z,99.99
2018-09-13T04:06:38.081Z,99.99
2018-09-13T04:07:38.095Z,99.99
2018-09-13T04:08:38.121Z,99.99
2018-09-13T04:09:38.138Z,99.99
2018-09-13T04:10:38.161Z,99.99
2018-09-13T04:11:38.184Z,99.99
2018-09-13T04:12:38.211Z,99.99
2018-09-13T04:13:38.221Z,99.99
2018-09-13T04:14:38.243Z,99.99
2018-09-13T04:15:38.267Z,99.99
2018-09-13T04:16:38.283Z,99.99
2018-09-13T04:17:38.303Z,99.99
2018-09-13T04:18:38.339Z,99.99
2018-09-13T04:19:38.350Z,99.99
2018-09-13T04:20:38.369Z,99.99
2018-09-13T04:21:38.399Z,99.99
2018-09-13T04:22:38.439Z,99.99
2018-09-13T04:23:38.436Z,99.99
2018-09-13T04:24:38.448Z,99.99
2018-09-13T04:25:38.477Z,99.99
2018-09-13T04:26:38.512Z,99.99
2018-09-13T04:27:38.512Z,99.99
2018-09-13T04:28:38.542Z,99.99
2018-09-13T04:29:38.564Z,99.99
2018-09-13T04:30:38.579Z,99.99
2018-09-13T04:31:38.603Z,99.99
2018-09-13T04:32:38.621Z,99.99
2018-09-13T04:33:38.644Z,99.99
2018-09-13T04:34:38.661Z,99.99
2018-09-13T04:35:38.842Z,99.33
2018-09-13T04:36:38.703Z,98.95
2018-09-13T04:37:38.725Z,98.57
2018-09-13T04:38:38.745Z,97.80
2018-09-13T04:39:38.768Z,97.33
2018-09-13T04:40:38.791Z,97.33
2018-09-13T04:41:38.810Z,97.61
2018-09-13T04:42:38.829Z,97.13
2018-09-13T04:43:38.850Z,97.04
2018-09-13T04:44:38.873Z,97.42
2018-09-13T04:45:38.895Z,97.04
2018-09-13T04:46:38.912Z,97.13
2018-09-13T04:47:38.929Z,97.42
2018-09-13T04:48:38.953Z,96.94
2018-09-13T04:49:38.969Z,97.52
2018-09-13T04:50:38.995Z,97.61
2018-09-13T04:51:39.017Z,97.52
2018-09-13T04:52:39.031Z,97.23
2018-09-13T04:53:39.062Z,98.09
2018-09-13T04:54:39.077Z,98.75
2018-09-13T04:55:39.099Z,98.75
2018-09-13T04:56:39.113Z,98.75
2018-09-13T04:57:39.139Z,98.57
2018-09-13T04:58:39.158Z,98.85
2018-09-13T04:59:39.177Z,98.47
2018-09-13T05:00:39.201Z,99.04
2018-09-13T05:01:39.221Z,99.43
2018-09-13T05:02:39.243Z,99.04
2018-09-13T05:03:39.259Z,99.24
2018-09-13T05:04:39.278Z,98.66
2018-09-13T05:05:39.302Z,98.85
2018-09-13T05:06:39.364Z,98.95
2018-09-13T05:07:39.350Z,98.75
2018-09-13T05:08:39.365Z,98.85
2018-09-13T05:09:39.393Z,99.04
2018-09-13T05:10:39.402Z,99.14
2018-09-13T05:11:39.421Z,99.14
2018-09-13T05:12:39.457Z,98.75
2018-09-13T05:13:39.463Z,98.57
2018-09-13T05:14:39.486Z,98.95
2018-09-13T05:15:39.507Z,98.75
2018-09-13T05:16:39.527Z,99.04
2018-09-13T05:17:39.549Z,98.75
2018-09-13T05:18:39.566Z,98.95
2018-09-13T05:19:39.592Z,98.09
2018-09-13T05:20:39.609Z,97.94
2018-09-13T05:21:39.628Z,97.04
2018-09-13T05:22:39.653Z,97.85
2018-09-13T05:23:39.668Z,97.71
2018-09-13T05:24:39.692Z,97.61
2018-09-13T05:25:39.715Z,97.56
2018-09-13T05:26:39.736Z,97.37
2018-09-13T05:27:39.756Z,97.18
2018-09-13T05:28:39.769Z,97.47
2018-09-13T05:29:39.793Z,97.56
2018-09-13T05:30:39.814Z,97.61
2018-09-13T05:31:39.842Z,97.90
2018-09-13T05:32:39.861Z,97.61
2018-09-13T05:33:39.885Z,97.90
2018-09-13T05:34:39.901Z,97.90
2018-09-13T05:35:39.915Z,97.52
2018-09-13T05:36:39.937Z,97.13
2018-09-13T05:37:39.957Z,97.13
2018-09-13T05:38:40.031Z,97.71
2018-09-13T05:39:40.010Z,97.90
2018-09-13T05:40:40.032Z,97.61
2018-09-13T05:41:40.040Z,98.09
2018-09-13T05:42:40.064Z,97.61
2018-09-13T05:43:40.083Z,97.52
2018-09-13T05:44:40.182Z,97.61
2018-09-13T05:45:40.123Z,97.61
2018-09-13T05:46:40.145Z,96.94
2018-09-13T05:47:40.162Z,98.18
2018-09-13T05:48:40.181Z,98.28
2018-09-13T05:49:40.205Z,97.61
2018-09-13T05:50:40.228Z,97.90
2018-09-13T05:51:40.249Z,97.42
2018-09-13T05:52:40.270Z,96.94
2018-09-13T05:53:40.288Z,97.33
2018-09-13T05:54:40.308Z,97.99
2018-09-13T05:55:40.326Z,97.04
2018-09-13T05:56:40.351Z,98.09
2018-09-13T05:57:40.379Z,98.28
2018-09-13T05:58:40.387Z,97.99
2018-09-13T05:59:40.409Z,98.66
2018-09-13T06:00:40.430Z,98.28
2018-09-13T06:01:40.452Z,98.28
2018-09-13T06:02:40.477Z,98.28
2018-09-13T06:03:40.496Z,98.09
2018-09-13T06:04:40.512Z,98.18
2018-09-13T06:05:40.534Z,98.47
2018-09-13T06:06:40.557Z,98.28
2018-09-13T06:07:40.579Z,98.09
2018-09-13T06:08:40.596Z,98.85
2018-09-13T06:09:40.614Z,98.66
2018-09-13T06:10:40.639Z,98.33
2018-09-13T06:11:40.654Z,98.81
2018-09-13T06:12:40.679Z,97.99
2018-09-13T06:13:40.807Z,99.00
2018-09-13T06:14:40.725Z,98.52
2018-09-13T06:15:40.747Z,98.43
2018-09-13T06:16:40.770Z,98.14
2018-09-13T06:17:40.784Z,98.90
2018-09-13T06:18:40.808Z,98.81
2018-09-13T06:19:40.867Z,98.90
2018-09-13T06:20:40.852Z,99.29
2018-09-13T06:21:40.870Z,99.99
2018-09-13T06:22:40.888Z,99.76
2018-09-13T06:23:40.912Z,99.99
2018-09-13T06:24:40.934Z,99.86
2018-09-13T06:25:40.950Z,99.99
2018-09-13T06:26:40.973Z,99.99
2018-09-13T06:27:40.998Z,99.99
2018-09-13T06:28:41.016Z,99.99
2018-09-13T06:29:41.095Z,99.99
2018-09-13T06:30:41.065Z,99.99
2018-09-13T06:31:41.078Z,99.99
2018-09-13T06:32:41.096Z,99.99
2018-09-13T06:33:41.121Z,99.99
2018-09-13T06:34:41.138Z,99.99
2018-09-13T06:35:41.160Z,99.99
2018-09-13T06:36:41.185Z,99.99
2018-09-13T06:37:41.204Z,99.99
2018-09-13T06:38:41.222Z,99.99
2018-09-13T06:39:41.253Z,99.99
2018-09-13T06:40:41.276Z,99.99
2018-09-13T06:41:41.291Z,99.99
2018-09-13T06:42:41.311Z,99.99
2018-09-13T06:43:41.351Z,99.99
2018-09-13T06:44:41.347Z,99.99
2018-09-13T06:45:41.371Z,99.99
2018-09-13T06:46:41.394Z,99.99
2018-09-13T06:47:41.413Z,99.99
2018-09-13T06:48:41.540Z,99.99
2018-09-13T06:49:41.463Z,99.99
2018-09-13T06:50:41.477Z,99.99
2018-09-13T06:51:41.498Z,99.99
2018-09-13T06:52:41.522Z,99.99
2018-09-13T06:53:41.553Z,99.99
2018-09-13T06:54:41.559Z,99.99
2018-09-13T06:55:41.582Z,99.99
2018-09-13T06:56:41.605Z,99.99
2018-09-13T06:57:41.622Z,99.99
2018-09-13T06:58:41.649Z,99.99
2018-09-13T06:59:41.676Z,99.99
2018-09-13T07:00:41.688Z,99.99
2018-09-13T07:01:41.708Z,99.99
2018-09-13T07:02:41.734Z,99.99
2018-09-13T07:03:41.753Z,99.99
2018-09-13T07:04:41.776Z,99.99
2018-09-13T07:05:41.806Z,99.99
2018-09-13T07:06:41.817Z,99.99
2018-09-13T07:07:41.840Z,99.99
2018-09-13T07:08:41.860Z,99.99
2018-09-13T07:09:41.882Z,99.99
2018-09-13T07:10:41.902Z,99.99
2018-09-13T07:11:41.920Z,99.99
2018-09-13T07:12:41.952Z,99.99
2018-09-13T07:13:41.968Z,99.99
2018-09-13T07:14:41.985Z,99.99
2018-09-13T07:15:42.009Z,99.99
2018-09-13T07:16:42.030Z,99.99
2018-09-13T07:17:42.050Z,99.99
2018-09-13T07:18:42.081Z,99.99
2018-09-13T07:19:42.096Z,99.99
2018-09-13T07:20:42.118Z,99.99
2018-09-13T07:21:42.140Z,99.99
2018-09-13T07:22:42.157Z,99.99
2018-09-13T07:23:42.189Z,99.99
2018-09-13T07:24:42.202Z,99.99
2018-09-13T07:25:42.220Z,99.99
2018-09-13T07:26:42.251Z,99.99
2018-09-13T07:27:42.267Z,99.99
2018-09-13T07:28:42.292Z,99.99
2018-09-13T07:29:42.316Z,99.99
2018-09-13T07:30:42.387Z,99.99
2018-09-13T07:31:42.355Z,99.99
2018-09-13T07:32:42.384Z,99.99
2018-09-13T07:33:42.400Z,99.99
2018-09-13T07:34:42.421Z,99.99
2018-09-13T07:35:42.441Z,99.99
2018-09-13T07:36:42.510Z,99.99
2018-09-13T07:37:42.486Z,99.99
2018-09-13T07:38:42.515Z,99.99
2018-09-13T07:39:42.536Z,99.99
2018-09-13T07:40:42.554Z,99.99
2018-09-13T07:41:42.580Z,99.99
2018-09-13T07:42:42.724Z,99.99
2018-09-13T07:43:42.616Z,99.99
2018-09-13T07:44:43.654Z,99.99
2018-09-13T07:45:42.666Z,99.99
2018-09-13T07:46:42.682Z,99.99
2018-09-13T07:47:42.704Z,99.99
2018-09-13T07:48:42.730Z,99.99
2018-09-13T07:49:42.899Z,99.99
2018-09-13T07:50:42.769Z,99.99
2018-09-13T07:51:42.794Z,99.99
2018-09-13T07:52:42.819Z,99.99
2018-09-13T07:53:42.839Z,99.99
2018-09-13T07:54:42.862Z,99.99
2018-09-13T07:55:42.957Z,99.99
2018-09-13T07:56:42.909Z,99.99
2018-09-13T07:57:42.930Z,99.99
2018-09-13T07:58:42.953Z,99.99
2018-09-13T07:59:42.974Z,99.99
2018-09-13T08:00:43.001Z,99.99
2018-09-13T08:01:43.028Z,99.99
2018-09-13T08:02:43.045Z,99.99
2018-09-13T08:03:43.072Z,99.99
2018-09-13T08:04:43.092Z,99.99
2018-09-13T08:05:43.115Z,99.99
2018-09-13T08:06:43.139Z,99.99
2018-09-13T08:07:43.164Z,99.99
2018-09-13T08:08:43.183Z,99.99
2018-09-13T08:09:43.208Z,99.99
2018-09-13T08:10:43.233Z,99.99
2018-09-13T08:11:43.266Z,99.99
2018-09-13T08:12:43.275Z,99.99
2018-09-13T08:13:43.301Z,98.62
2018-09-13T08:14:43.326Z,99.99
2018-09-13T08:15:43.382Z,98.72
2018-09-13T08:16:43.367Z,97.09
2018-09-13T08:17:43.402Z,96.99
2018-09-13T08:18:43.419Z,97.38
2018-09-13T08:19:43.435Z,97.95
2018-09-13T08:20:43.465Z,99.29
2018-09-13T08:21:43.591Z,99.87
2018-09-13T08:22:43.513Z,99.99
2018-09-13T08:23:43.535Z,99.99
2018-09-13T08:24:43.555Z,99.99
2018-09-13T08:25:43.580Z,99.99
2018-09-13T08:26:43.601Z,99.99
2018-09-13T08:27:43.630Z,99.99
2018-09-13T08:28:43.646Z,99.63
2018-09-13T08:29:43.675Z,99.99
2018-09-13T08:30:43.701Z,98.43
2018-09-13T08:31:43.725Z,99.68
2018-09-13T08:32:43.739Z,99.68
2018-09-13T08:33:43.771Z,98.62
2018-09-13T08:34:43.803Z,97.56
2018-09-13T08:35:43.813Z,97.95
2018-09-13T08:36:43.829Z,98.62
2018-09-13T08:37:43.852Z,99.68
2018-09-13T08:38:43.883Z,99.68
2018-09-13T08:39:43.945Z,99.99
2018-09-13T08:40:43.931Z,99.99
2018-09-13T08:41:43.946Z,99.99
2018-09-13T08:42:43.974Z,99.87
2018-09-13T08:43:43.996Z,98.43
2018-09-13T08:44:44.016Z,98.62
2018-09-13T08:45:44.037Z,98.53
2018-09-13T08:46:44.064Z,98.43
2018-09-13T08:47:44.084Z,99.68
2018-09-13T08:48:44.117Z,99.99
2018-09-13T08:49:44.131Z,99.99
2018-09-13T08:50:44.155Z,99.05
2018-09-13T08:51:44.179Z,99.01
2018-09-13T08:52:44.202Z,98.77
2018-09-13T08:53:44.259Z,98.91
2018-09-13T08:54:44.247Z,98.67
2018-09-13T08:55:44.268Z,97.28
2018-09-13T08:56:44.291Z,96.99
2018-09-13T08:57:44.313Z,97.38
2018-09-13T08:58:44.343Z,97.38
2018-09-13T08:59:44.357Z,96.80
2018-09-13T09:00:44.502Z,97.38
2018-09-13T09:01:44.411Z,97.86
2018-09-13T09:02:44.428Z,98.72
2018-09-13T09:03:44.450Z,98.91
2018-09-13T09:04:44.477Z,98.43
2018-09-13T09:05:44.502Z,97.81
2018-09-13T09:06:44.526Z,97.14
2018-09-13T09:07:44.543Z,98.00
2018-09-13T09:08:44.563Z,98.62
2018-09-13T09:09:44.588Z,98.24
2018-09-13T09:10:44.622Z,98.58
2018-09-13T09:11:44.674Z,96.94
2018-09-13T09:12:44.658Z,95.70
2018-09-13T09:13:44.682Z,95.50
2018-09-13T09:14:44.707Z,94.74
2018-09-13T09:15:44.728Z,95.36
2018-09-13T09:16:44.754Z,95.79
2018-09-13T09:17:44.777Z,95.50
2018-09-13T09:18:44.835Z,95.79
2018-09-13T09:19:44.826Z,95.41
2018-09-13T09:20:44.845Z,96.75
2018-09-13T09:21:44.865Z,96.94
2018-09-13T09:22:44.887Z,98.19
2018-09-13T09:23:44.916Z,98.00
2018-09-13T09:24:44.938Z,97.33
2018-09-13T09:25:44.960Z,96.75
2018-09-13T09:26:44.989Z,97.71
2018-09-13T09:27:45.002Z,96.08
2018-09-13T09:28:45.063Z,95.79
2018-09-13T09:29:45.069Z,97.42
2018-09-13T09:30:45.078Z,96.75
2018-09-13T09:31:45.106Z,96.85
2018-09-13T09:32:45.118Z,94.64
2018-09-13T09:33:45.147Z,94.83
2018-09-13T09:34:45.202Z,93.59
2018-09-13T09:35:45.195Z,94.26
2018-09-13T09:36:45.210Z,95.12
2018-09-13T09:37:45.243Z,96.27
2018-09-13T09:38:45.265Z,96.66
2018-09-13T09:39:45.360Z,97.04
2018-09-13T09:40:45.321Z,96.70
2018-09-13T09:41:45.331Z,97.04
2018-09-13T09:42:45.357Z,96.61
2018-09-13T09:43:45.377Z,96.80
2018-09-13T09:44:45.403Z,97.09
2018-09-13T09:45:45.427Z,97.76
2018-09-13T09:46:45.446Z,96.99
2018-09-13T09:47:45.474Z,96.03
2018-09-13T09:48:45.495Z,97.19
2018-09-13T09:49:45.520Z,96.70
2018-09-13T09:50:45.547Z,95.26
2018-09-13T09:51:45.561Z,95.55
2018-09-13T09:52:45.588Z,95.26
2018-09-13T09:53:45.613Z,94.93
2018-09-13T09:54:45.628Z,95.36
2018-09-13T09:55:45.657Z,95.12
2018-09-13T09:56:45.680Z,94.64
2018-09-13T09:57:45.754Z,94.74
2018-09-13T09:58:45.728Z,92.63
2018-09-13T09:59:45.744Z,93.01
2018-09-13T10:00:45.768Z,91.38
2018-09-13T10:01:45.801Z,90.22
2018-09-13T10:02:45.815Z,89.65
2018-09-13T10:03:45.842Z,90.03
2018-09-13T10:04:45.939Z,88.59
2018-09-13T10:05:45.889Z,87.92
2018-09-13T10:06:45.912Z,88.83
2018-09-13T10:07:45.931Z,86.52
2018-09-13T10:08:45.953Z,85.62
2018-09-13T10:09:46.171Z,85.85
2018-09-13T10:10:45.998Z,84.47
2018-09-13T10:11:46.021Z,83.74
2018-09-13T10:12:46.043Z,83.36
2018-09-13T10:13:46.066Z,82.68
2018-09-13T10:14:46.102Z,82.68
2018-09-13T10:15:46.119Z,82.49
2018-09-13T10:16:46.146Z,82.63
2018-09-13T10:17:46.169Z,83.49
2018-09-13T10:18:46.181Z,83.40
2018-09-13T10:19:46.208Z,82.82
2018-09-13T10:20:46.238Z,85.61
2018-09-13T10:21:46.291Z,83.59
2018-09-13T10:22:46.321Z,82.05
2018-09-13T10:23:46.329Z,82.53
2018-09-13T10:24:46.388Z,80.55
2018-09-13T10:25:46.355Z,78.73
2018-09-13T10:26:46.704Z,77.48
2018-09-13T10:27:46.431Z,78.44
2018-09-13T10:28:46.504Z,77.96
2018-09-13T10:29:46.513Z,76.61
2018-09-13T10:30:46.479Z,76.04
2018-09-13T10:31:46.494Z,75.17
2018-09-13T10:32:46.538Z,75.88
2018-09-13T10:33:46.652Z,76.94
2018-09-13T10:34:46.612Z,75.88
2018-09-13T10:35:46.603Z,75.24
2018-09-13T10:36:46.620Z,74.96
2018-09-13T10:37:46.641Z,75.19
2018-09-13T10:38:46.663Z,74.51
2018-09-13T10:39:46.696Z,73.55
2018-09-13T10:40:46.827Z,73.58
2018-09-13T10:41:46.748Z,72.14
2018-09-13T10:42:46.767Z,71.56
2018-09-13T10:43:46.800Z,71.02
2018-09-13T10:44:46.813Z,70.06
2018-09-13T10:45:46.885Z,68.74
2018-09-13T10:46:46.898Z,67.10
2018-09-13T10:47:56.472Z,66.56
2018-09-13T10:48:46.971Z,66.66
2018-09-13T10:49:46.960Z,66.27
2018-09-13T10:50:46.980Z,63.76
2018-09-13T10:51:46.991Z,64.47
2018-09-13T10:52:47.045Z,64.37
2018-09-13T10:53:47.072Z,62.82
2018-09-13T10:54:47.077Z,62.44
2018-09-13T10:55:47.135Z,62.37
2018-09-13T10:56:47.145Z,61.83
2018-09-13T10:57:47.164Z,59.31
2018-09-13T10:58:47.212Z,57.14
2018-09-13T10:59:47.238Z,53.53
2018-09-13T11:00:47.258Z,50.41
2018-09-13T11:01:47.288Z,46.50
2018-09-13T11:02:47.336Z,44.30
2018-09-13T11:03:47.386Z,43.05
2018-09-13T11:04:48.409Z,40.95
2018-09-13T11:05:47.486Z,40.21
2018-09-13T11:06:47.438Z,38.51
2018-09-13T11:07:47.475Z,38.06
2018-09-13T11:08:47.518Z,36.14
2018-09-13T11:09:50.565Z,34.21
2018-09-13T11:10:48.084Z,34.72
2018-09-13T11:11:47.601Z,34.65
2018-09-13T11:12:48.441Z,35.99
2018-09-13T11:13:47.664Z,36.33
2018-09-13T11:14:47.695Z,39.26
2018-09-13T11:15:47.734Z,39.33
2018-09-13T11:16:47.770Z,37.04
2018-09-13T11:17:47.800Z,35.89
2018-09-13T11:18:47.829Z,34.86
2018-09-13T11:19:47.871Z,33.61
2018-09-13T11:20:47.917Z,33.77
2018-09-13T11:21:48.057Z,33.58
2018-09-13T11:22:47.971Z,32.90
2018-09-13T11:23:51.035Z,31.87
2018-09-13T11:40:40.150Z,52.51
2018-09-13T11:41:40.021Z,53.23
2018-09-13T11:43:22.598Z,51.16
2018-09-13T11:44:22.636Z,49.29
2018-09-13T11:45:22.660Z,49.19
2018-09-13T11:46:22.697Z,52.17
2018-09-13T11:47:22.721Z,52.05
2018-09-13T11:48:22.751Z,52.80
2018-09-13T11:49:22.783Z,54.61
2018-09-13T11:50:22.808Z,54.03
2018-09-13T11:51:22.842Z,54.00
2018-09-13T11:52:24.097Z,55.16
2018-09-13T11:53:22.904Z,54.97
2018-09-13T11:54:22.930Z,55.33
2018-09-13T11:55:22.958Z,55.62
2018-09-13T11:56:22.983Z,56.10
2018-09-13T11:57:23.021Z,56.46
2018-09-13T11:58:23.056Z,56.56
2018-09-13T11:59:23.068Z,57.39
2018-09-13T12:00:23.099Z,56.24
2018-09-13T12:01:23.125Z,57.20
2018-09-13T12:02:23.156Z,55.46
2018-09-13T12:03:23.179Z,55.24
2018-09-13T12:04:23.214Z,55.34
2018-09-13T12:05:24.449Z,55.82
2018-09-13T12:06:23.529Z,56.59
2018-09-13T12:07:25.917Z,56.09
2018-09-13T12:08:23.326Z,56.18
2018-09-13T12:09:23.383Z,56.18
2018-09-13T12:10:23.372Z,56.76
2018-09-13T12:11:23.398Z,56.85
2018-09-13T12:12:23.429Z,57.62
2018-09-13T12:13:23.452Z,57.34
2018-09-13T12:14:23.480Z,57.94
2018-09-13T12:15:23.506Z,58.14
2018-09-13T12:16:23.535Z,57.65
2018-09-13T12:17:23.561Z,57.85
2018-09-13T12:18:23.674Z,57.27
2018-09-13T12:19:23.613Z,56.49
2018-09-13T12:20:23.649Z,56.30
2018-09-13T12:21:23.669Z,57.56
2018-09-13T12:22:23.704Z,57.07
2018-09-13T12:23:23.721Z,57.07
2018-09-13T12:24:26.370Z,57.65
2018-09-13T12:25:23.773Z,57.07
2018-09-13T12:26:23.798Z,57.07
2018-09-13T12:27:23.881Z,57.17
2018-09-13T12:28:23.846Z,57.75
2018-09-13T12:29:27.369Z,57.39
2018-09-13T12:31:11.464Z,46.55
2018-09-13T12:32:11.487Z,42.00
2018-09-13T12:33:11.518Z,39.78
2018-09-13T12:34:14.980Z,36.05
2018-09-13T12:35:11.569Z,33.95
2018-09-13T12:36:11.596Z,31.17
2018-09-13T12:37:13.054Z,29.35
2018-09-13T12:38:12.672Z,28.51
2018-09-13T12:39:11.695Z,26.95
2018-09-13T12:40:11.726Z,26.36
2018-09-13T12:41:11.764Z,25.39
2018-09-13T12:42:11.784Z,25.70
2018-09-13T12:43:14.444Z,24.41
2018-09-13T12:44:14.475Z,24.91
2018-09-13T12:45:11.886Z,24.41
2018-09-13T12:46:11.916Z,23.14
2018-09-13T12:47:11.954Z,23.05
2018-09-13T12:48:11.994Z,21.98
2018-09-13T12:49:12.024Z,21.80
2018-09-13T12:50:12.059Z,21.70
2018-09-13T12:51:12.100Z,21.33
2018-09-13T12:52:12.173Z,21.02
2018-09-13T12:53:12.170Z,21.95
2018-09-13T12:54:12.209Z,24.17
2018-09-13T12:55:12.240Z,26.72
2018-09-13T12:56:12.305Z,24.69
2018-09-13T12:57:12.317Z,23.30
2018-09-13T12:58:12.349Z,24.70
2018-09-13T12:59:12.396Z,27.26
2018-09-13T13:00:12.430Z,31.19
2018-09-13T13:01:12.462Z,33.67
2018-09-13T13:02:12.498Z,35.86
2018-09-13T13:03:12.524Z,37.76
2018-09-13T13:04:12.575Z,39.59
2018-09-13T13:05:12.600Z,37.72
2018-09-13T13:06:12.631Z,34.59
2018-09-13T13:07:12.667Z,32.32
2018-09-13T13:08:12.704Z,30.72
2018-09-13T13:09:12.739Z,28.71
2018-09-13T13:10:12.774Z,27.97